createdAt,value
2023-04-29T00:02:09.221Z,6.95
2023-04-29T00:04:41.454Z,7.02
2023-04-29T00:07:15.818Z,7.08
2023-04-29T00:09:47.797Z,7.17
2023-04-29T00:12:20.196Z,7.25
2023-04-29T00:14:52.811Z,7.30
2023-04-29T00:17:25.126Z,7.33
2023-04-29T00:20:19.068Z,7.37
2023-04-29T00:22:51.022Z,7.40
2023-04-29T00:25:23.367Z,7.43
2023-04-29T00:27:55.572Z,7.44
2023-04-29T00:30:27.617Z,7.38
2023-04-29T00:33:00.282Z,7.39
2023-04-29T00:35:33.014Z,7.32
2023-04-29T00:38:05.113Z,7.30
2023-04-29T00:40:37.626Z,7.23
2023-04-29T00:43:10.314Z,7.28
2023-04-29T00:45:42.475Z,7.29
2023-04-29T00:48:15.491Z,7.29
2023-04-29T00:50:47.945Z,7.28
2023-04-29T00:53:20.171Z,7.21
2023-04-29T00:55:54.143Z,7.19
2023-04-29T00:58:33.249Z,7.17
2023-04-29T01:01:06.027Z,7.10
2023-04-29T01:03:39.048Z,7.09
2023-04-29T01:06:31.402Z,7.11
2023-04-29T01:09:27.418Z,7.02
2023-04-29T01:12:09.744Z,6.97
2023-04-29T01:14:45.126Z,7.00
2023-04-29T01:17:23.256Z,6.99
2023-04-29T01:19:57.355Z,7.00
2023-04-29T01:22:29.995Z,6.99
2023-04-29T01:25:02.452Z,6.98
2023-04-29T01:27:43.051Z,6.92
2023-04-29T01:30:30.529Z,6.87
2023-04-29T01:33:12.894Z,6.81
2023-04-29T01:35:54.288Z,6.79
2023-04-29T01:38:35.855Z,6.72
2023-04-29T01:41:16.256Z,6.67
2023-04-29T01:43:52.493Z,6.61
2023-04-29T01:46:29.520Z,6.53
2023-04-29T01:49:03.661Z,6.49
2023-04-29T01:51:35.836Z,6.47
2023-04-29T01:54:07.968Z,6.41
2023-04-29T01:56:39.992Z,6.27
2023-04-29T01:59:34.769Z,6.21
2023-04-29T02:02:12.739Z,6.15
2023-04-29T02:04:51.025Z,6.04
2023-04-29T02:07:23.701Z,5.95
2023-04-29T02:09:56.542Z,5.87
2023-04-29T02:12:28.727Z,5.79
2023-04-29T02:15:01.121Z,5.69
2023-04-29T02:17:34.971Z,5.63
2023-04-29T02:20:08.121Z,5.47
2023-04-29T02:22:40.486Z,5.42
2023-04-29T02:25:13.711Z,5.47
2023-04-29T02:27:45.672Z,5.50
2023-04-29T02:30:17.837Z,5.50
2023-04-29T02:32:49.886Z,5.52
2023-04-29T02:35:21.941Z,5.53
2023-04-29T02:37:54.876Z,5.46
2023-04-29T02:40:27.513Z,5.42
2023-04-29T02:42:59.923Z,5.34
2023-04-29T02:45:31.560Z,5.30
2023-04-29T02:48:04.874Z,5.31
2023-04-29T02:50:37.147Z,5.43
2023-04-29T02:53:09.181Z,5.55
2023-04-29T02:55:41.250Z,5.54
2023-04-29T02:58:14.481Z,5.58
2023-04-29T03:00:47.042Z,5.53
2023-04-29T03:03:19.759Z,5.59
2023-04-29T03:05:52.232Z,5.68
2023-04-29T03:08:24.529Z,5.73
2023-04-29T03:10:56.584Z,5.77
2023-04-29T03:13:29.177Z,5.79
2023-04-29T03:16:02.022Z,5.78
2023-04-29T03:18:34.500Z,5.76
2023-04-29T03:21:08.563Z,5.77
2023-04-29T03:23:40.950Z,5.87
2023-04-29T03:26:13.543Z,5.86
2023-04-29T03:28:45.697Z,5.86
2023-04-29T03:31:17.784Z,5.84
2023-04-29T03:33:51.164Z,5.89
2023-04-29T03:36:23.354Z,5.95
2023-04-29T03:39:13.615Z,6.04
2023-04-29T03:41:45.712Z,6.07
2023-04-29T03:44:17.742Z,6.12
2023-04-29T03:46:49.914Z,6.16
2023-04-29T03:49:22.425Z,6.20
2023-04-29T03:51:54.654Z,6.27
2023-04-29T03:54:26.674Z,6.25
2023-04-29T03:56:58.672Z,6.30
2023-04-29T03:59:30.770Z,6.39
2023-04-29T04:02:03.081Z,6.48
2023-04-29T04:04:35.795Z,6.55
2023-04-29T04:07:07.863Z,6.59
2023-04-29T04:09:57.298Z,6.62
2023-04-29T04:12:29.426Z,6.65
2023-04-29T04:15:04.502Z,6.67
2023-04-29T04:17:36.527Z,6.65
2023-04-29T04:20:10.573Z,6.60
2023-04-29T04:22:42.638Z,6.62
2023-04-29T04:25:21.091Z,6.66
2023-04-29T04:27:54.691Z,6.69
2023-04-29T04:30:40.614Z,6.75
2023-04-29T04:33:12.642Z,6.78
2023-04-29T04:35:45.095Z,6.83
2023-04-29T04:38:17.729Z,6.90
2023-04-29T04:40:49.851Z,6.95
2023-04-29T04:43:38.464Z,7.03
2023-04-29T04:46:17.991Z,7.10
2023-04-29T04:49:00.044Z,7.16
2023-04-29T04:51:32.846Z,7.17
2023-04-29T04:54:04.892Z,7.25
2023-04-29T04:56:38.221Z,7.27
2023-04-29T04:59:11.588Z,7.28
2023-04-29T05:01:44.903Z,7.33
2023-04-29T05:04:17.320Z,7.39
2023-04-29T05:06:49.422Z,7.48
2023-04-29T05:09:24.091Z,7.55
2023-04-29T05:11:56.677Z,7.61
2023-04-29T05:14:29.022Z,7.67
2023-04-29T05:17:03.872Z,7.73
2023-04-29T05:19:36.776Z,7.80
2023-04-29T05:22:09.096Z,7.83
2023-04-29T05:24:41.046Z,7.89
2023-04-29T05:27:13.555Z,7.97
2023-04-29T05:29:45.728Z,8.01
2023-04-29T05:32:18.045Z,8.03
2023-04-29T05:34:50.990Z,8.10
2023-04-29T05:37:23.528Z,8.14
2023-04-29T05:40:24.860Z,8.22
2023-04-29T05:42:58.151Z,8.25
2023-04-29T05:45:30.795Z,8.34
2023-04-29T05:48:03.103Z,8.39
2023-04-29T05:50:36.398Z,8.41
2023-04-29T05:53:08.487Z,8.48
2023-04-29T05:55:45.245Z,8.58
2023-04-29T05:58:22.463Z,8.60
2023-04-29T06:00:55.401Z,8.65
2023-04-29T06:03:28.111Z,8.71
2023-04-29T06:06:15.830Z,8.81
2023-04-29T06:09:13.340Z,8.89
2023-04-29T06:11:53.534Z,8.93
2023-04-29T06:14:26.837Z,8.94
2023-04-29T06:16:59.544Z,9.00
2023-04-29T06:19:32.963Z,9.03
2023-04-29T06:22:05.198Z,9.12
2023-04-29T06:24:37.726Z,9.13
2023-04-29T06:27:10.389Z,9.06
2023-04-29T06:29:42.535Z,9.15
2023-04-29T06:32:15.116Z,9.24
2023-04-29T06:34:48.030Z,9.28
2023-04-29T06:37:43.209Z,9.39
2023-04-29T06:40:46.816Z,9.49
2023-04-29T06:43:27.022Z,9.47
2023-04-29T06:46:25.249Z,9.62
2023-04-29T06:49:07.774Z,9.70
2023-04-29T06:51:40.196Z,9.71
2023-04-29T06:54:12.877Z,9.81
2023-04-29T06:56:44.998Z,9.79
2023-04-29T06:59:17.616Z,9.80
2023-04-29T07:01:50.065Z,9.90
2023-04-29T07:04:26.102Z,9.93
2023-04-29T07:06:59.455Z,10.05
2023-04-29T07:09:34.081Z,10.06
2023-04-29T07:12:09.536Z,10.14
2023-04-29T07:14:41.928Z,10.05
2023-04-29T07:17:14.384Z,10.12
2023-04-29T07:19:47.243Z,10.22
2023-04-29T07:22:20.191Z,10.34
2023-04-29T07:24:58.221Z,10.43
2023-04-29T07:27:31.709Z,10.71
2023-04-29T07:30:04.766Z,10.90
2023-04-29T07:32:38.836Z,10.82
2023-04-29T07:35:11.955Z,10.85
2023-04-29T07:37:46.119Z,11.08
2023-04-29T07:40:18.093Z,11.27
2023-04-29T07:42:50.834Z,11.43
2023-04-29T07:45:24.227Z,11.52
2023-04-29T07:47:56.908Z,11.65
2023-04-29T07:50:29.093Z,11.80
2023-04-29T07:53:02.489Z,11.70
2023-04-29T07:55:34.652Z,11.81
2023-04-29T07:58:07.176Z,11.79
2023-04-29T08:00:39.230Z,11.81
2023-04-29T08:03:11.794Z,11.94
2023-04-29T08:05:45.470Z,12.17
2023-04-29T08:08:20.946Z,12.22
2023-04-29T08:10:53.025Z,12.16
2023-04-29T08:13:25.161Z,12.19
2023-04-29T08:15:57.166Z,11.94
2023-04-29T08:18:31.431Z,11.90
2023-04-29T08:21:04.074Z,12.13
2023-04-29T08:23:37.059Z,12.19
2023-04-29T08:26:11.276Z,12.03
2023-04-29T08:28:43.484Z,12.38
2023-04-29T08:31:21.812Z,12.70
2023-04-29T08:33:55.275Z,12.96
2023-04-29T08:36:30.259Z,12.98
2023-04-29T08:39:02.940Z,13.16
2023-04-29T08:41:38.419Z,13.40
2023-04-29T08:44:11.296Z,13.51
2023-04-29T08:46:45.192Z,13.46
2023-04-29T08:49:17.411Z,13.25
2023-04-29T08:51:52.015Z,13.23
2023-04-29T08:54:24.187Z,13.41
2023-04-29T08:56:58.580Z,13.52
2023-04-29T08:59:32.278Z,13.58
2023-04-29T09:02:07.948Z,13.71
2023-04-29T09:04:49.083Z,13.48
2023-04-29T09:07:22.085Z,13.54
2023-04-29T09:09:55.431Z,13.53
2023-04-29T09:12:27.651Z,13.73
2023-04-29T09:15:00.282Z,14.13
2023-04-29T09:17:46.725Z,14.50
2023-04-29T09:20:32.247Z,14.24
2023-04-29T09:23:06.154Z,14.23
2023-04-29T09:25:38.540Z,14.10
2023-04-29T09:28:19.592Z,14.37
2023-04-29T09:30:51.695Z,14.51
2023-04-29T09:33:24.044Z,14.68
2023-04-29T09:35:59.531Z,14.73
2023-04-29T09:38:31.675Z,14.35
2023-04-29T09:41:18.338Z,14.11
2023-04-29T09:44:06.855Z,14.25
2023-04-29T09:46:39.803Z,14.15
2023-04-29T09:52:18.993Z,14.52
2023-04-29T09:54:51.540Z,14.81
2023-04-29T09:57:25.983Z,14.93
2023-04-29T09:59:58.038Z,14.90
2023-04-29T10:02:31.207Z,15.14
2023-04-29T10:05:04.167Z,15.27
2023-04-29T10:07:36.483Z,15.41
2023-04-29T10:10:11.927Z,15.46
2023-04-29T10:12:46.639Z,15.53
2023-04-29T10:15:24.749Z,15.41
2023-04-29T10:18:00.123Z,14.88
2023-04-29T10:20:35.038Z,14.86
2023-04-29T10:23:07.686Z,15.04
2023-04-29T10:25:42.567Z,15.13
2023-04-29T10:28:17.150Z,15.11
2023-04-29T10:30:55.946Z,15.29
2023-04-29T10:33:32.573Z,15.36
2023-04-29T10:36:05.456Z,15.55
2023-04-29T10:38:42.358Z,15.57
2023-04-29T10:41:24.914Z,15.57
2023-04-29T10:43:57.748Z,15.41
2023-04-29T10:46:30.551Z,15.45
2023-04-29T10:49:05.025Z,15.38
2023-04-29T10:51:42.192Z,15.19
2023-04-29T10:54:17.004Z,15.21
2023-04-29T10:56:52.996Z,15.42
2023-04-29T10:59:45.507Z,15.49
2023-04-29T11:02:17.666Z,15.41
2023-04-29T11:05:13.411Z,15.52
2023-04-29T11:07:47.013Z,15.60
2023-04-29T11:10:19.375Z,15.60
2023-04-29T11:13:11.355Z,15.49
2023-04-29T11:15:43.918Z,15.40
2023-04-29T11:18:16.294Z,15.39
2023-04-29T11:21:16.800Z,15.23
2023-04-29T11:23:49.219Z,15.22
2023-04-29T11:26:22.650Z,15.20
2023-04-29T11:28:53.451Z,15.22
2023-04-29T11:31:32.200Z,15.11
2023-04-29T11:34:05.821Z,15.04
2023-04-29T11:36:36.224Z,15.05
2023-04-29T11:39:08.582Z,15.05
2023-04-29T11:41:41.567Z,15.13
2023-04-29T11:44:15.639Z,15.20
2023-04-29T11:46:47.961Z,15.22
2023-04-29T11:49:20.520Z,15.23
2023-04-29T11:51:54.026Z,15.25
2023-04-29T11:54:29.420Z,15.32
2023-04-29T11:57:04.516Z,15.44
2023-04-29T11:59:36.778Z,15.48
2023-04-29T12:02:13.406Z,15.44
2023-04-29T12:04:52.325Z,15.36
2023-04-29T12:07:25.008Z,15.34
2023-04-29T12:09:58.513Z,15.38
2023-04-29T12:12:32.061Z,15.19
2023-04-29T12:15:05.717Z,15.09
2023-04-29T12:17:38.090Z,15.00
2023-04-29T12:20:12.123Z,14.87
2023-04-29T12:22:46.760Z,14.93
2023-04-29T12:25:19.579Z,15.04
2023-04-29T12:27:53.250Z,15.21
2023-04-29T12:30:25.314Z,15.30
2023-04-29T12:32:58.370Z,15.34
2023-04-29T12:35:31.971Z,15.41
2023-04-29T12:38:04.391Z,15.39
2023-04-29T12:40:38.507Z,15.52
2023-04-29T12:43:14.490Z,15.64
2023-04-29T12:45:47.008Z,15.68
2023-04-29T12:48:26.664Z,15.65
2023-04-29T12:51:07.276Z,15.69
2023-04-29T12:53:40.470Z,15.70
2023-04-29T12:56:13.521Z,15.52
2023-04-29T12:58:45.525Z,15.21
2023-04-29T13:01:18.745Z,15.05
2023-04-29T13:03:51.988Z,15.09
2023-04-29T13:06:22.476Z,15.20
2023-04-29T13:08:54.966Z,15.25
2023-04-29T13:11:32.542Z,15.12
2023-04-29T13:14:07.058Z,15.06
2023-04-29T13:16:39.108Z,14.96
2023-04-29T13:19:29.553Z,15.05
2023-04-29T13:22:03.397Z,15.03
2023-04-29T13:24:36.949Z,15.14
2023-04-29T13:27:09.285Z,15.19
2023-04-29T13:29:41.537Z,15.23
2023-04-29T13:32:13.718Z,15.25
2023-04-29T13:34:47.256Z,15.29
2023-04-29T13:37:20.461Z,15.35
2023-04-29T13:39:57.190Z,15.40
2023-04-29T13:42:30.179Z,15.39
2023-04-29T13:45:04.334Z,15.38
2023-04-29T13:47:56.451Z,15.39
2023-04-29T13:51:09.656Z,15.38
2023-04-29T13:53:50.040Z,15.34
2023-04-29T14:03:59.190Z,15.30
2023-04-29T14:06:33.426Z,15.23
2023-04-29T14:09:05.638Z,15.14
2023-04-29T14:11:37.869Z,15.09
2023-04-29T14:14:09.881Z,15.06
2023-04-29T14:16:42.328Z,15.07
2023-04-29T14:19:14.569Z,15.07
2023-04-29T14:21:46.757Z,15.08
2023-04-29T14:24:19.019Z,15.05
2023-04-29T14:26:53.545Z,14.99
2023-04-29T14:29:27.355Z,14.95
2023-04-29T14:31:59.737Z,14.92
2023-04-29T14:34:31.857Z,14.95
2023-04-29T14:37:04.768Z,14.98
2023-04-29T14:39:38.400Z,14.95
2023-04-29T14:42:10.767Z,14.82
2023-04-29T14:44:43.390Z,14.75
2023-04-29T14:47:16.661Z,14.64
2023-04-29T14:49:48.948Z,14.52
2023-04-29T14:52:21.425Z,14.50
2023-04-29T14:54:54.291Z,14.49
2023-04-29T14:57:26.890Z,14.52
2023-04-29T14:59:59.022Z,14.57
2023-04-29T15:02:32.718Z,14.55
2023-04-29T15:05:05.476Z,14.62
2023-04-29T15:07:37.565Z,14.68
2023-04-29T15:10:11.554Z,14.65
2023-04-29T15:12:43.979Z,14.59
2023-04-29T15:15:16.202Z,14.53
2023-04-29T15:17:48.608Z,14.54
2023-04-29T15:20:20.688Z,14.55
2023-04-29T15:22:52.764Z,14.53
2023-04-29T15:25:26.655Z,14.51
2023-04-29T15:27:59.721Z,14.53
2023-04-29T15:30:35.949Z,14.49
2023-04-29T15:33:08.344Z,14.48
2023-04-29T15:35:41.378Z,14.45
2023-04-29T15:38:14.308Z,14.38
2023-04-29T15:40:46.740Z,14.38
2023-04-29T15:43:18.836Z,14.39
2023-04-29T15:45:51.799Z,14.39
2023-04-29T15:48:35.577Z,14.41
2023-04-29T15:51:16.604Z,14.48
2023-04-29T15:53:52.976Z,14.52
2023-04-29T15:56:31.020Z,14.44
2023-04-29T15:59:04.109Z,14.38
2023-04-29T16:01:36.721Z,14.31
2023-04-29T16:04:10.130Z,14.25
2023-04-29T16:06:44.175Z,14.18
2023-04-29T16:09:17.106Z,14.08
2023-04-29T16:11:49.957Z,14.06
2023-04-29T16:14:25.248Z,14.03
2023-04-29T16:16:58.198Z,14.04
2023-04-29T16:19:30.656Z,14.05
2023-04-29T16:22:03.473Z,14.06
2023-04-29T16:24:36.140Z,14.04
2023-04-29T16:27:09.648Z,14.04
2023-04-29T16:29:39.903Z,14.00
2023-04-29T16:32:12.047Z,13.89
2023-04-29T16:34:44.085Z,13.82
2023-04-29T16:37:17.581Z,13.83
2023-04-29T16:39:47.818Z,13.88
2023-04-29T16:42:19.896Z,13.89
2023-04-29T16:44:52.171Z,13.95
2023-04-29T16:47:25.806Z,13.90
2023-04-29T16:49:58.313Z,13.84
2023-04-29T16:52:30.741Z,13.80
2023-04-29T16:55:06.192Z,13.76
2023-04-29T16:57:38.625Z,13.77
2023-04-29T17:00:15.161Z,13.78
2023-04-29T17:02:49.115Z,13.77
2023-04-29T17:05:23.713Z,13.77
2023-04-29T17:07:56.275Z,13.78
2023-04-29T17:10:30.453Z,13.77
2023-04-29T17:13:06.150Z,13.74
2023-04-29T17:15:39.780Z,13.69
2023-04-29T17:18:12.961Z,13.60
2023-04-29T17:20:48.780Z,13.62
2023-04-29T17:23:24.689Z,13.63
2023-04-29T17:25:57.398Z,13.57
2023-04-29T17:28:31.784Z,13.50
2023-04-29T17:31:03.997Z,13.46
2023-04-29T17:33:36.222Z,13.43
2023-04-29T17:36:09.748Z,13.39
2023-04-29T17:38:44.560Z,13.30
2023-04-29T17:41:17.437Z,13.14
2023-04-29T17:43:50.355Z,13.01
2023-04-29T17:46:23.199Z,12.83
2023-04-29T17:48:55.801Z,12.74
2023-04-29T17:51:36.633Z,12.61
2023-04-29T17:54:11.753Z,12.51
2023-04-29T17:56:45.249Z,12.47
2023-04-29T17:59:19.822Z,12.44
2023-04-29T18:01:56.070Z,12.41
2023-04-29T18:04:30.708Z,12.39
2023-04-29T18:07:06.253Z,12.36
2023-04-29T18:09:40.734Z,12.31
2023-04-29T18:12:16.809Z,12.27
2023-04-29T18:14:52.337Z,12.26
2023-04-29T18:17:26.709Z,12.29
2023-04-29T18:20:02.956Z,12.27
2023-04-29T18:22:38.588Z,12.20
2023-04-29T18:25:14.456Z,12.20
2023-04-29T18:27:49.305Z,12.21
2023-04-29T18:30:23.758Z,12.23
2023-04-29T18:32:58.022Z,12.18
2023-04-29T18:35:32.446Z,12.15
2023-04-29T18:38:11.279Z,12.17
2023-04-29T18:40:46.184Z,12.16
2023-04-29T18:43:25.395Z,12.16
2023-04-29T18:46:01.307Z,12.01
2023-04-29T18:48:40.996Z,11.96
2023-04-29T18:51:17.862Z,11.97
2023-04-29T18:53:54.085Z,12.02
2023-04-29T18:56:28.347Z,12.00
2023-04-29T18:59:02.448Z,11.91
2023-04-29T19:01:37.124Z,11.81
2023-04-29T19:04:12.372Z,11.76
2023-04-29T19:06:46.511Z,11.72
2023-04-29T19:09:22.363Z,11.71
2023-04-29T19:11:56.789Z,11.75
2023-04-29T19:14:30.636Z,11.78
2023-04-29T19:17:04.516Z,11.78
2023-04-29T19:19:39.036Z,11.77
2023-04-29T19:22:14.491Z,11.74
2023-04-29T19:24:49.281Z,11.69
2023-04-29T19:27:21.779Z,11.68
2023-04-29T19:29:56.552Z,11.64
2023-04-29T19:32:30.406Z,11.62
2023-04-29T19:35:04.259Z,11.60
2023-04-29T19:37:36.599Z,11.59
2023-04-29T19:40:58.265Z,11.57
2023-04-29T19:43:30.504Z,11.57
2023-04-29T19:46:03.143Z,11.55
2023-04-29T19:48:36.092Z,11.56
2023-04-29T19:51:09.406Z,11.56
2023-04-29T19:53:40.608Z,11.50
2023-04-29T19:56:12.728Z,11.38
2023-04-29T19:58:44.949Z,11.35
2023-04-29T20:01:16.941Z,11.29
2023-04-29T20:03:49.942Z,11.27
2023-04-29T20:06:22.473Z,11.28
2023-04-29T20:08:54.637Z,11.31
2023-04-29T20:11:30.033Z,11.30
2023-04-29T20:14:03.218Z,11.30
2023-04-29T20:16:36.487Z,11.30
2023-04-29T20:19:07.021Z,11.31
2023-04-29T20:21:40.672Z,11.27
2023-04-29T20:24:12.885Z,11.30
2023-04-29T20:26:45.306Z,11.32
2023-04-29T20:29:17.314Z,11.30
2023-04-29T20:31:49.703Z,11.31
2023-04-29T20:34:21.953Z,11.32
2023-04-29T20:36:54.224Z,11.30
2023-04-29T20:39:28.902Z,11.32
2023-04-29T20:42:03.401Z,11.34
2023-04-29T20:44:38.789Z,11.35
2023-04-29T20:47:11.396Z,11.36
2023-04-29T20:49:43.536Z,11.37
2023-04-29T20:52:15.877Z,11.36
2023-04-29T20:54:48.006Z,11.35
2023-04-29T20:57:20.056Z,11.34
2023-04-29T20:59:52.938Z,11.33
2023-04-29T21:02:25.617Z,11.34
2023-04-29T21:04:57.923Z,11.33
2023-04-29T21:07:30.128Z,11.31
2023-04-29T21:10:04.622Z,11.31
2023-04-29T21:12:36.679Z,11.32
2023-04-29T21:15:10.226Z,11.30
2023-04-29T21:17:43.808Z,11.25
2023-04-29T21:20:17.551Z,11.22
2023-04-29T21:22:49.428Z,11.21
2023-04-29T21:25:21.560Z,11.21
2023-04-29T21:27:53.815Z,11.20
2023-04-29T21:30:26.186Z,11.19
2023-04-29T21:32:58.756Z,11.17
2023-04-29T21:35:31.245Z,11.17
2023-04-29T21:38:03.455Z,11.18
2023-04-29T21:40:35.415Z,11.17
2023-04-29T21:43:07.788Z,11.17
2023-04-29T21:45:40.144Z,11.19
2023-04-29T21:48:18.834Z,11.21
2023-04-29T21:50:51.305Z,11.20
2023-04-29T21:53:23.448Z,11.22
2023-04-29T21:55:56.978Z,11.21
2023-04-29T21:58:27.247Z,11.21
2023-04-29T22:01:01.928Z,11.14
2023-04-29T22:03:35.242Z,11.17
2023-04-29T22:06:07.663Z,11.15
2023-04-29T22:08:39.745Z,11.15
2023-04-29T22:11:11.762Z,11.17
2023-04-29T22:13:45.610Z,11.14
2023-04-29T22:16:18.960Z,11.10
2023-04-29T22:18:49.423Z,11.10
2023-04-29T22:21:21.814Z,11.02
2023-04-29T22:23:53.842Z,11.04
2023-04-29T22:26:25.955Z,11.00
2023-04-29T22:28:57.964Z,11.00
2023-04-29T22:31:34.489Z,11.00
2023-04-29T22:34:08.664Z,11.00
2023-04-29T22:36:41.309Z,10.98
2023-04-29T22:39:13.389Z,10.98
2023-04-29T22:41:45.501Z,10.97
2023-04-29T22:44:17.436Z,10.97
2023-04-29T22:46:49.737Z,10.97
2023-04-29T22:49:21.888Z,10.97
2023-04-29T22:51:54.001Z,10.98
2023-04-29T22:54:26.105Z,10.97
2023-04-29T22:56:59.035Z,10.99
2023-04-29T22:59:31.687Z,10.99
2023-04-29T23:02:04.049Z,10.99
2023-04-29T23:04:36.726Z,11.00
2023-04-29T23:07:11.377Z,10.98
2023-04-29T23:09:44.255Z,11.01
2023-04-29T23:12:16.783Z,11.02
2023-04-29T23:14:48.997Z,11.01
2023-04-29T23:17:21.064Z,10.99
2023-04-29T23:19:53.665Z,10.98
2023-04-29T23:22:26.041Z,10.96
2023-04-29T23:24:58.074Z,10.96
2023-04-29T23:27:30.144Z,10.96
2023-04-29T23:30:02.936Z,10.96
2023-04-29T23:32:37.258Z,10.97
2023-04-29T23:35:11.644Z,10.94
2023-04-29T23:37:43.838Z,10.94
2023-04-29T23:40:17.876Z,10.93
2023-04-29T23:42:49.958Z,10.92
2023-04-29T23:45:21.981Z,10.93
2023-04-29T23:47:54.066Z,10.92
2023-04-29T23:50:26.205Z,10.89
2023-04-29T23:52:59.055Z,10.89
2023-04-29T23:55:31.856Z,10.89
2023-04-29T23:58:03.825Z,10.89
